Portada
METAR-TAF:

METAR-TAF

Aeroports :

Phrae, Tailàndia

latitud: 18-10N, longitud: 100-10E, altitud: 161 m

Observació

L'informe es va fer fa 1 hora i 2 minuts, a les 09:00 UTC
Vent calma
Temperatura 32°C
Humitat 46%
Pressió 1009 hPa
Visibilitat 10 km o més
Escasses núvols a una alçada de 2500 ft

METAR: VTCP 240900Z 00000KT 9999 FEW025 32/19 Q1009 NOSIG

Hora: 17:02 (10:02 UTC)

Pronòstic

L'informe es va fer fa 5 hores i 2 minuts, a les 05:00 UTC
Pronòstic vàlid del 24 a les 06 UTC al 25 a les 06 UTC
Vent 5 kt del Nord/Nord-Est
Visibilitat 10 km o més
Escasses núvols a una alçada de 2500 ft

TAF: VTCP 240500Z 2406/2506 02005KT 9999 FEW025

Observacions i pronòstics meteorològics de més de 4000 aeroports (METAR i TAF).

Les estacions disponibles són els punts grocs i vermells al mapa.

Posi el ratolí al punt desitjat per veure el nom de l'estació.

Feu clic per veure les observacions i els pronòstics meteorològics.

Per canviar el mapa: feu clic els botons verds amb una creu de color negre per apropar; al botó verd amb un guió per allunyar la imatge; o en les fletxes verdes per a mapes adjacents.


METAR-TAF: